createdAt,value
2023-03-01T00:02:09.218Z,-3.12
2023-03-01T00:07:10.742Z,-3.16
2023-03-01T00:12:12.775Z,-3.19
2023-03-01T00:17:14.556Z,-3.23
2023-03-01T00:22:16.030Z,-3.18
2023-03-01T00:27:17.504Z,-3.09
2023-03-01T00:32:19.202Z,-3.01
2023-03-01T00:37:24.322Z,-3.01
2023-03-01T00:42:25.786Z,-3.03
2023-03-01T00:47:30.311Z,-3.07
2023-03-01T00:52:31.809Z,-3.13
2023-03-01T00:57:33.420Z,-3.20
2023-03-01T01:02:35.478Z,-3.26
2023-03-01T01:07:37.716Z,-3.26
2023-03-01T01:12:39.219Z,-3.16
2023-03-01T01:17:41.462Z,-3.02
2023-03-01T01:22:42.953Z,-2.94
2023-03-01T01:27:44.388Z,-2.98
2023-03-01T01:32:45.830Z,-3.03
2023-03-01T01:37:47.311Z,-3.10
2023-03-01T01:42:48.885Z,-3.19
2023-03-01T01:47:51.989Z,-3.26
2023-03-01T01:52:55.835Z,-3.32
2023-03-01T01:58:02.283Z,-3.26
2023-03-01T02:03:12.824Z,-3.13
2023-03-01T02:08:17.137Z,-3.09
2023-03-01T02:13:18.757Z,-3.13
2023-03-01T02:18:23.408Z,-3.20
2023-03-01T02:23:25.080Z,-3.26
2023-03-01T02:28:36.059Z,-3.30
2023-03-01T02:33:39.909Z,-3.35
2023-03-01T02:38:43.079Z,-3.47
2023-03-01T02:43:44.837Z,-3.54
2023-03-01T02:48:53.090Z,-3.58
2023-03-01T02:54:15.900Z,-3.64
2023-03-01T02:59:23.563Z,-3.62
2023-03-01T03:04:25.093Z,-3.45
2023-03-01T03:09:26.870Z,-3.35
2023-03-01T03:14:28.391Z,-3.33
2023-03-01T03:19:29.842Z,-3.32
2023-03-01T03:24:38.811Z,-3.41
2023-03-01T03:29:40.301Z,-3.51
2023-03-01T03:34:41.812Z,-3.59
2023-03-01T03:39:43.277Z,-3.62
2023-03-01T03:44:44.732Z,-3.53
2023-03-01T03:49:46.172Z,-3.42
2023-03-01T03:54:47.624Z,-3.39
2023-03-01T03:59:49.053Z,-3.37
2023-03-01T04:04:50.721Z,-3.38
2023-03-01T04:09:52.213Z,-3.41
2023-03-01T04:14:54.310Z,-3.42
2023-03-01T04:19:55.767Z,-3.34
2023-03-01T04:24:57.259Z,-3.21
2023-03-01T04:29:58.793Z,-3.19
2023-03-01T04:35:02.933Z,-3.21
2023-03-01T04:40:16.882Z,-3.24
2023-03-01T04:45:18.432Z,-3.28
2023-03-01T04:50:24.637Z,-3.36
2023-03-01T04:55:27.897Z,-3.49
2023-03-01T05:00:29.426Z,-3.47
2023-03-01T05:05:38.684Z,-3.39
2023-03-01T05:10:40.191Z,-3.37
2023-03-01T05:15:41.916Z,-3.38
2023-03-01T05:20:43.665Z,-3.42
2023-03-01T05:25:45.804Z,-3.44
2023-03-01T05:30:47.903Z,-3.46
2023-03-01T05:35:50.341Z,-3.44
2023-03-01T05:40:51.877Z,-3.43
2023-03-01T05:45:53.434Z,-3.30
2023-03-01T05:50:54.891Z,-3.12
2023-03-01T05:55:56.468Z,-2.98
2023-03-01T06:00:57.952Z,-2.89
2023-03-01T06:05:59.740Z,-2.83
2023-03-01T06:11:01.244Z,-2.73
2023-03-01T06:16:07.029Z,-2.64
2023-03-01T06:21:09.573Z,-2.59
2023-03-01T06:26:11.103Z,-2.51
2023-03-01T06:31:12.932Z,-2.42
2023-03-01T06:36:14.392Z,-2.31
2023-03-01T06:41:15.855Z,-2.22
2023-03-01T06:46:17.406Z,-2.10
2023-03-01T06:51:18.956Z,-1.92
2023-03-01T06:56:20.926Z,-1.66
2023-03-01T07:01:22.598Z,-1.48
2023-03-01T07:06:24.536Z,-1.39
2023-03-01T07:11:26.068Z,-1.30
2023-03-01T07:16:27.786Z,-1.24
2023-03-01T07:21:29.459Z,-1.15
2023-03-01T07:26:31.109Z,-1.05
2023-03-01T07:31:33.327Z,-0.98
2023-03-01T07:36:34.896Z,-0.90
2023-03-01T07:41:36.470Z,-0.80
2023-03-01T07:46:37.952Z,-0.67
2023-03-01T07:51:39.461Z,-0.47
2023-03-01T07:56:41.810Z,-0.17
2023-03-01T08:01:43.363Z,0.06
2023-03-01T08:06:44.935Z,0.18
2023-03-01T08:11:46.963Z,0.32
2023-03-01T08:16:50.568Z,0.44
2023-03-01T08:21:52.064Z,0.57
2023-03-01T08:26:53.771Z,0.70
2023-03-01T08:31:55.379Z,0.93
2023-03-01T08:36:56.962Z,1.25
2023-03-01T08:41:58.545Z,1.47
2023-03-01T08:47:00.983Z,1.65
2023-03-01T08:52:03.419Z,1.76
2023-03-01T08:57:04.905Z,1.91
2023-03-01T09:02:13.727Z,2.09
2023-03-01T09:07:15.246Z,2.23
2023-03-01T09:12:16.729Z,2.35
2023-03-01T09:17:18.246Z,2.39
2023-03-01T09:22:19.757Z,2.54
2023-03-01T09:27:21.208Z,2.68
2023-03-01T09:32:22.824Z,2.87
2023-03-01T09:37:24.296Z,3.00
2023-03-01T09:42:26.588Z,3.14
2023-03-01T09:47:39.417Z,3.22
2023-03-01T09:52:44.362Z,3.27
2023-03-01T09:57:51.499Z,3.34
2023-03-01T10:03:00.925Z,3.38
2023-03-01T10:08:11.763Z,3.42
2023-03-01T10:13:44.897Z,3.49
2023-03-01T10:18:53.654Z,3.57
2023-03-01T10:24:10.372Z,3.69
2023-03-01T10:29:15.906Z,3.75
2023-03-01T10:34:31.862Z,3.85
2023-03-01T10:39:35.032Z,3.97
2023-03-01T10:44:44.712Z,4.06
2023-03-01T10:50:04.353Z,4.15
2023-03-01T10:55:06.755Z,4.20
2023-03-01T11:00:14.195Z,4.25
2023-03-01T11:05:18.687Z,4.33
2023-03-01T11:10:30.335Z,4.44
2023-03-01T11:15:32.068Z,4.57
2023-03-01T11:20:36.726Z,4.65
2023-03-01T11:25:42.438Z,4.73
2023-03-01T11:31:05.484Z,4.79
2023-03-01T11:36:33.369Z,4.89
2023-03-01T11:41:38.068Z,5.04
2023-03-01T11:47:06.462Z,5.10
2023-03-01T11:52:22.606Z,5.16
2023-03-01T11:57:44.220Z,5.14
2023-03-01T12:02:48.630Z,5.12
2023-03-01T12:08:14.225Z,5.18
2023-03-01T12:13:57.642Z,5.29
2023-03-01T12:19:08.754Z,5.40
2023-03-01T12:24:24.300Z,5.49
2023-03-01T12:29:50.260Z,5.60
2023-03-01T12:35:08.358Z,5.70
2023-03-01T12:40:28.066Z,5.78
2023-03-01T12:45:47.785Z,5.78
2023-03-01T12:50:53.294Z,5.86
2023-03-01T12:56:02.031Z,5.96
2023-03-01T13:01:35.630Z,6.02
2023-03-01T13:06:59.918Z,6.01
2023-03-01T13:12:04.245Z,6.03
2023-03-01T13:17:48.101Z,6.00
2023-03-01T13:23:06.818Z,5.97
2023-03-01T13:28:38.866Z,5.88
2023-03-01T13:33:48.037Z,5.79
2023-03-01T13:38:52.440Z,5.78
2023-03-01T13:43:54.533Z,5.80
2023-03-01T13:48:58.124Z,5.84
2023-03-01T13:54:00.597Z,5.89
2023-03-01T13:59:16.524Z,5.90
2023-03-01T14:04:33.302Z,5.92
2023-03-01T14:09:39.018Z,5.91
2023-03-01T14:14:49.343Z,5.91
2023-03-01T14:19:58.370Z,6.01
2023-03-01T14:25:18.587Z,6.10
2023-03-01T14:30:26.858Z,6.14
2023-03-01T14:35:35.371Z,6.14
2023-03-01T14:40:38.258Z,6.14
2023-03-01T14:45:40.015Z,6.17
2023-03-01T14:50:44.208Z,6.23
2023-03-01T14:55:48.977Z,6.32
2023-03-01T15:01:05.180Z,6.28
2023-03-01T15:06:09.271Z,6.21
2023-03-01T15:11:31.308Z,6.12
2023-03-01T15:16:34.999Z,6.00
2023-03-01T15:21:39.086Z,5.88
2023-03-01T15:26:45.166Z,5.79
2023-03-01T15:32:33.757Z,5.75
2023-03-01T15:37:45.857Z,5.73
2023-03-01T15:42:47.996Z,5.66
2023-03-01T15:47:58.683Z,5.60
2023-03-01T15:53:02.956Z,5.50
2023-03-01T15:58:11.051Z,5.38
2023-03-01T16:03:12.984Z,5.25
2023-03-01T16:08:15.441Z,5.14
2023-03-01T16:13:18.826Z,5.04
2023-03-01T16:18:20.396Z,4.97
2023-03-01T16:23:25.878Z,4.89
2023-03-01T16:28:29.275Z,4.79
2023-03-01T16:33:33.495Z,4.68
2023-03-01T16:38:35.991Z,4.56
2023-03-01T16:43:37.539Z,4.45
2023-03-01T16:48:40.219Z,4.35
2023-03-01T16:53:42.444Z,4.24
2023-03-01T16:58:44.464Z,4.12
2023-03-01T17:03:47.597Z,4.10
2023-03-01T17:08:49.294Z,4.09
2023-03-01T17:13:50.855Z,4.03
2023-03-01T17:18:52.679Z,3.94
2023-03-01T17:23:57.055Z,3.80
2023-03-01T17:28:59.190Z,3.68
2023-03-01T17:34:01.706Z,3.54
2023-03-01T17:39:04.144Z,3.40
2023-03-01T17:44:05.756Z,3.23
2023-03-01T17:49:07.319Z,3.08
2023-03-01T17:54:08.817Z,2.96
2023-03-01T17:59:10.378Z,2.86
2023-03-01T18:04:12.100Z,2.85
2023-03-01T18:09:14.771Z,2.90
2023-03-01T18:14:16.294Z,2.90
2023-03-01T18:19:18.227Z,2.80
2023-03-01T18:24:20.038Z,2.68
2023-03-01T18:29:21.619Z,2.58
2023-03-01T18:34:23.253Z,2.51
2023-03-01T18:39:24.955Z,2.43
2023-03-01T18:44:26.618Z,2.37
2023-03-01T18:49:28.241Z,2.38
2023-03-01T18:54:30.071Z,2.46
2023-03-01T18:59:32.750Z,2.47
2023-03-01T19:04:34.271Z,2.42
2023-03-01T19:09:35.837Z,2.35
2023-03-01T19:14:37.392Z,2.23
2023-03-01T19:19:39.643Z,2.10
2023-03-01T19:24:41.140Z,1.95
2023-03-01T19:29:42.658Z,1.89
2023-03-01T19:34:44.199Z,1.93
2023-03-01T19:39:47.465Z,1.92
2023-03-01T19:44:48.992Z,1.91
2023-03-01T19:49:50.742Z,1.81
2023-03-01T19:54:55.851Z,1.69
2023-03-01T20:00:11.058Z,1.58
2023-03-01T20:05:12.698Z,1.58
2023-03-01T20:10:14.234Z,1.61
2023-03-01T20:15:15.779Z,1.60
2023-03-01T20:20:17.325Z,1.55
2023-03-01T20:25:18.904Z,1.46
2023-03-01T20:30:20.447Z,1.41
2023-03-01T20:35:22.475Z,1.38
2023-03-01T20:40:28.448Z,1.44
2023-03-01T20:45:30.000Z,1.51
2023-03-01T20:50:31.485Z,1.49
2023-03-01T20:55:33.552Z,1.46
2023-03-01T21:00:35.706Z,1.37
2023-03-01T21:05:37.405Z,1.27
2023-03-01T21:10:38.920Z,1.17
2023-03-01T21:15:40.748Z,1.21
2023-03-01T21:20:42.719Z,1.27
2023-03-01T21:25:45.310Z,1.26
2023-03-01T21:30:46.790Z,1.20
2023-03-01T21:35:48.896Z,1.12
2023-03-01T21:40:50.446Z,1.02
2023-03-01T21:45:52.028Z,0.93
2023-03-01T21:51:02.785Z,0.92
2023-03-01T21:56:05.453Z,0.96
2023-03-01T22:01:13.501Z,0.91
2023-03-01T22:06:28.974Z,0.86
2023-03-01T22:11:33.389Z,0.86
2023-03-01T22:16:36.162Z,0.81
2023-03-01T22:21:43.285Z,0.68
2023-03-01T22:26:47.067Z,0.55
2023-03-01T22:31:48.732Z,0.55
2023-03-01T22:36:51.171Z,0.57
2023-03-01T22:41:54.596Z,0.47
2023-03-01T22:46:56.143Z,0.38
2023-03-01T22:51:59.264Z,0.33
2023-03-01T22:57:01.991Z,0.42
2023-03-01T23:02:03.790Z,0.52
2023-03-01T23:07:05.430Z,0.51
2023-03-01T23:12:09.242Z,0.45
2023-03-01T23:17:11.048Z,0.45
2023-03-01T23:22:12.981Z,0.43
2023-03-01T23:27:18.661Z,0.49
2023-03-01T23:32:20.229Z,0.59
2023-03-01T23:37:21.828Z,0.56
2023-03-01T23:42:23.313Z,0.39
2023-03-01T23:47:24.808Z,0.31
2023-03-01T23:52:26.577Z,0.29
2023-03-01T23:57:29.281Z,0.30
